sensor_id;sensor_type;location;lat;lon;timestamp;temperature;humidity
5899;DHT22;2975;50.956;6.962;2023-02-04T00:00:51;8.90;99.90
5899;DHT22;2975;50.956;6.962;2023-02-04T00:03:16;8.90;99.90
5899;DHT22;2975;50.956;6.962;2023-02-04T00:05:42;8.90;99.90
5899;DHT22;2975;50.956;6.962;2023-02-04T00:08:08;8.90;99.90
5899;DHT22;2975;50.956;6.962;2023-02-04T00:10:35;8.90;99.90
5899;DHT22;2975;50.956;6.962;2023-02-04T00:13:02;8.90;99.90
5899;DHT22;2975;50.956;6.962;2023-02-04T00:15:28;8.80;99.90
5899;DHT22;2975;50.956;6.962;2023-02-04T00:17:54;8.90;99.90
5899;DHT22;2975;50.956;6.962;2023-02-04T00:20:19;8.90;99.90
5899;DHT22;2975;50.956;6.962;2023-02-04T00:22:45;8.90;99.90
5899;DHT22;2975;50.956;6.962;2023-02-04T00:25:11;8.80;99.90
5899;DHT22;2975;50.956;6.962;2023-02-04T00:27:37;8.80;99.90
5899;DHT22;2975;50.956;6.962;2023-02-04T00:30:06;8.80;99.90
5899;DHT22;2975;50.956;6.962;2023-02-04T00:32:32;8.80;99.90
5899;DHT22;2975;50.956;6.962;2023-02-04T00:34:58;8.80;99.90
5899;DHT22;2975;50.956;6.962;2023-02-04T00:37:24;8.80;99.90
5899;DHT22;2975;50.956;6.962;2023-02-04T00:39:50;8.80;99.90
5899;DHT22;2975;50.956;6.962;2023-02-04T00:42:16;8.80;99.90
5899;DHT22;2975;50.956;6.962;2023-02-04T00:44:41;8.80;99.90
5899;DHT22;2975;50.956;6.962;2023-02-04T00:47:07;8.80;99.90
5899;DHT22;2975;50.956;6.962;2023-02-04T00:49:33;8.70;99.90
5899;DHT22;2975;50.956;6.962;2023-02-04T00:51:59;8.70;99.90
5899;DHT22;2975;50.956;6.962;2023-02-04T00:54:25;8.70;99.90
5899;DHT22;2975;50.956;6.962;2023-02-04T00:56:50;8.70;99.90
5899;DHT22;2975;50.956;6.962;2023-02-04T00:59:16;8.70;99.90
5899;DHT22;2975;50.956;6.962;2023-02-04T01:01:42;8.70;99.90
5899;DHT22;2975;50.956;6.962;2023-02-04T01:04:08;8.70;99.90
5899;DHT22;2975;50.956;6.962;2023-02-04T01:06:34;8.70;99.90
5899;DHT22;2975;50.956;6.962;2023-02-04T01:08:59;8.60;99.90
5899;DHT22;2975;50.956;6.962;2023-02-04T01:11:26;8.60;99.90
5899;DHT22;2975;50.956;6.962;2023-02-04T01:13:51;8.60;99.90
5899;DHT22;2975;50.956;6.962;2023-02-04T01:16:17;8.60;99.90
5899;DHT22;2975;50.956;6.962;2023-02-04T01:18:44;8.60;99.90
5899;DHT22;2975;50.956;6.962;2023-02-04T01:21:09;8.60;99.90
5899;DHT22;2975;50.956;6.962;2023-02-04T01:23:35;8.50;99.90
5899;DHT22;2975;50.956;6.962;2023-02-04T01:26:01;8.50;99.90
5899;DHT22;2975;50.956;6.962;2023-02-04T01:28:27;8.50;99.90
5899;DHT22;2975;50.956;6.962;2023-02-04T01:30:52;8.50;99.90
5899;DHT22;2975;50.956;6.962;2023-02-04T01:33:18;8.50;99.90
5899;DHT22;2975;50.956;6.962;2023-02-04T01:35:44;8.50;99.90
5899;DHT22;2975;50.956;6.962;2023-02-04T01:38:09;8.50;99.90
5899;DHT22;2975;50.956;6.962;2023-02-04T01:40:35;8.50;99.90
5899;DHT22;2975;50.956;6.962;2023-02-04T01:43:01;8.50;99.90
5899;DHT22;2975;50.956;6.962;2023-02-04T01:45:27;8.40;99.90
5899;DHT22;2975;50.956;6.962;2023-02-04T01:47:55;8.40;99.90
5899;DHT22;2975;50.956;6.962;2023-02-04T01:50:20;8.40;99.90
5899;DHT22;2975;50.956;6.962;2023-02-04T01:52:46;8.40;99.90
5899;DHT22;2975;50.956;6.962;2023-02-04T01:55:18;8.40;99.90
5899;DHT22;2975;50.956;6.962;2023-02-04T01:57:44;8.40;99.90
5899;DHT22;2975;50.956;6.962;2023-02-04T02:00:21;8.40;99.90
5899;DHT22;2975;50.956;6.962;2023-02-04T02:02:50;8.40;99.90
5899;DHT22;2975;50.956;6.962;2023-02-04T02:05:22;8.40;99.90
5899;DHT22;2975;50.956;6.962;2023-02-04T02:07:50;8.40;99.90
5899;DHT22;2975;50.956;6.962;2023-02-04T02:10:17;8.40;99.90
5899;DHT22;2975;50.956;6.962;2023-02-04T02:12:44;8.40;99.90
5899;DHT22;2975;50.956;6.962;2023-02-04T02:15:11;8.30;99.90
5899;DHT22;2975;50.956;6.962;2023-02-04T02:17:37;8.30;99.90
5899;DHT22;2975;50.956;6.962;2023-02-04T02:20:06;8.30;99.90
5899;DHT22;2975;50.956;6.962;2023-02-04T02:22:45;8.30;99.90
5899;DHT22;2975;50.956;6.962;2023-02-04T02:25:13;8.30;99.90
5899;DHT22;2975;50.956;6.962;2023-02-04T02:27:39;8.30;99.90
5899;DHT22;2975;50.956;6.962;2023-02-04T02:30:06;8.30;99.90
5899;DHT22;2975;50.956;6.962;2023-02-04T02:32:32;8.30;99.90
5899;DHT22;2975;50.956;6.962;2023-02-04T02:34:58;8.30;99.90
5899;DHT22;2975;50.956;6.962;2023-02-04T02:37:24;8.30;99.90
5899;DHT22;2975;50.956;6.962;2023-02-04T02:39:49;8.30;99.90
5899;DHT22;2975;50.956;6.962;2023-02-04T02:42:16;8.30;99.90
5899;DHT22;2975;50.956;6.962;2023-02-04T02:44:44;8.30;99.90
5899;DHT22;2975;50.956;6.962;2023-02-04T02:47:13;8.30;99.90
5899;DHT22;2975;50.956;6.962;2023-02-04T02:49:40;8.30;99.90
5899;DHT22;2975;50.956;6.962;2023-02-04T02:52:12;8.20;99.90
5899;DHT22;2975;50.956;6.962;2023-02-04T02:54:38;8.20;99.90
5899;DHT22;2975;50.956;6.962;2023-02-04T02:57:15;8.20;99.90
5899;DHT22;2975;50.956;6.962;2023-02-04T02:59:41;8.20;99.90
5899;DHT22;2975;50.956;6.962;2023-02-04T03:02:08;8.20;99.90
5899;DHT22;2975;50.956;6.962;2023-02-04T03:04:41;8.20;99.90
5899;DHT22;2975;50.956;6.962;2023-02-04T03:07:08;8.10;99.90
5899;DHT22;2975;50.956;6.962;2023-02-04T03:09:35;8.20;99.90
5899;DHT22;2975;50.956;6.962;2023-02-04T03:12:01;8.10;99.90
5899;DHT22;2975;50.956;6.962;2023-02-04T03:14:27;8.10;99.90
5899;DHT22;2975;50.956;6.962;2023-02-04T03:16:54;8.10;99.90
5899;DHT22;2975;50.956;6.962;2023-02-04T03:19:21;8.10;99.90
5899;DHT22;2975;50.956;6.962;2023-02-04T03:21:47;8.10;99.90
5899;DHT22;2975;50.956;6.962;2023-02-04T03:24:13;8.10;99.90
5899;DHT22;2975;50.956;6.962;2023-02-04T03:26:38;8.10;99.90
5899;DHT22;2975;50.956;6.962;2023-02-04T03:29:09;8.10;99.90
5899;DHT22;2975;50.956;6.962;2023-02-04T03:31:35;8.10;99.90
5899;DHT22;2975;50.956;6.962;2023-02-04T03:34:02;8.10;99.90
5899;DHT22;2975;50.956;6.962;2023-02-04T03:36:27;8.20;99.90
5899;DHT22;2975;50.956;6.962;2023-02-04T03:38:53;8.10;99.90
5899;DHT22;2975;50.956;6.962;2023-02-04T03:41:18;8.10;99.90
5899;DHT22;2975;50.956;6.962;2023-02-04T03:43:44;8.00;99.90
5899;DHT22;2975;50.956;6.962;2023-02-04T03:46:10;8.00;99.90
5899;DHT22;2975;50.956;6.962;2023-02-04T03:48:35;8.10;99.90
5899;DHT22;2975;50.956;6.962;2023-02-04T03:51:01;8.10;99.90
5899;DHT22;2975;50.956;6.962;2023-02-04T03:53:26;8.00;99.90
5899;DHT22;2975;50.956;6.962;2023-02-04T03:55:52;8.00;99.90
5899;DHT22;2975;50.956;6.962;2023-02-04T03:58:18;8.00;99.90
5899;DHT22;2975;50.956;6.962;2023-02-04T04:00:43;8.00;99.90
5899;DHT22;2975;50.956;6.962;2023-02-04T04:03:09;8.00;99.90
5899;DHT22;2975;50.956;6.962;2023-02-04T04:05:35;8.00;99.90
5899;DHT22;2975;50.956;6.962;2023-02-04T04:08:01;8.00;99.90
5899;DHT22;2975;50.956;6.962;2023-02-04T04:10:27;8.00;99.90
5899;DHT22;2975;50.956;6.962;2023-02-04T04:12:54;7.90;99.90
5899;DHT22;2975;50.956;6.962;2023-02-04T04:15:19;7.90;99.90
5899;DHT22;2975;50.956;6.962;2023-02-04T04:17:45;7.90;99.90
5899;DHT22;2975;50.956;6.962;2023-02-04T04:20:11;7.90;99.90
5899;DHT22;2975;50.956;6.962;2023-02-04T04:22:37;7.80;99.90
5899;DHT22;2975;50.956;6.962;2023-02-04T04:25:03;7.80;99.90
5899;DHT22;2975;50.956;6.962;2023-02-04T04:27:29;7.90;99.90
5899;DHT22;2975;50.956;6.962;2023-02-04T04:29:55;7.80;99.90
5899;DHT22;2975;50.956;6.962;2023-02-04T04:32:21;7.80;99.90
5899;DHT22;2975;50.956;6.962;2023-02-04T04:34:47;7.80;99.90
5899;DHT22;2975;50.956;6.962;2023-02-04T04:37:12;7.80;99.90
5899;DHT22;2975;50.956;6.962;2023-02-04T04:39:38;7.70;99.90
5899;DHT22;2975;50.956;6.962;2023-02-04T04:42:03;7.70;99.90
5899;DHT22;2975;50.956;6.962;2023-02-04T04:44:29;7.70;99.90
5899;DHT22;2975;50.956;6.962;2023-02-04T04:46:55;7.70;99.90
5899;DHT22;2975;50.956;6.962;2023-02-04T04:49:20;7.70;99.90
5899;DHT22;2975;50.956;6.962;2023-02-04T04:51:46;7.70;99.90
5899;DHT22;2975;50.956;6.962;2023-02-04T04:54:11;7.70;99.90
5899;DHT22;2975;50.956;6.962;2023-02-04T04:56:37;7.70;99.90
5899;DHT22;2975;50.956;6.962;2023-02-04T04:59:03;7.70;99.90
5899;DHT22;2975;50.956;6.962;2023-02-04T05:01:28;7.70;99.90
5899;DHT22;2975;50.956;6.962;2023-02-04T05:03:54;7.70;99.90
5899;DHT22;2975;50.956;6.962;2023-02-04T05:06:20;7.60;99.90
5899;DHT22;2975;50.956;6.962;2023-02-04T05:08:53;7.60;99.90
5899;DHT22;2975;50.956;6.962;2023-02-04T05:11:19;7.60;99.90
5899;DHT22;2975;50.956;6.962;2023-02-04T05:13:45;7.60;99.90
5899;DHT22;2975;50.956;6.962;2023-02-04T05:16:11;7.60;99.90
5899;DHT22;2975;50.956;6.962;2023-02-04T05:18:38;7.60;99.90
5899;DHT22;2975;50.956;6.962;2023-02-04T05:21:04;7.60;99.90
5899;DHT22;2975;50.956;6.962;2023-02-04T05:23:29;7.60;99.90
5899;DHT22;2975;50.956;6.962;2023-02-04T05:25:55;7.60;99.90
5899;DHT22;2975;50.956;6.962;2023-02-04T05:28:21;7.60;99.90
5899;DHT22;2975;50.956;6.962;2023-02-04T05:30:46;7.50;99.90
5899;DHT22;2975;50.956;6.962;2023-02-04T05:33:12;7.60;99.90
5899;DHT22;2975;50.956;6.962;2023-02-04T05:35:38;7.60;99.90
5899;DHT22;2975;50.956;6.962;2023-02-04T05:38:03;7.50;99.90
5899;DHT22;2975;50.956;6.962;2023-02-04T05:40:29;7.50;99.90
5899;DHT22;2975;50.956;6.962;2023-02-04T05:42:54;7.50;99.90
5899;DHT22;2975;50.956;6.962;2023-02-04T05:45:20;7.50;99.90
5899;DHT22;2975;50.956;6.962;2023-02-04T05:47:46;7.50;99.90
5899;DHT22;2975;50.956;6.962;2023-02-04T05:50:11;7.40;99.90
5899;DHT22;2975;50.956;6.962;2023-02-04T05:52:37;7.50;99.90
5899;DHT22;2975;50.956;6.962;2023-02-04T05:55:03;7.40;99.90
5899;DHT22;2975;50.956;6.962;2023-02-04T05:57:29;7.40;99.90
5899;DHT22;2975;50.956;6.962;2023-02-04T05:59:54;7.40;99.90
5899;DHT22;2975;50.956;6.962;2023-02-04T06:02:20;7.40;99.90
5899;DHT22;2975;50.956;6.962;2023-02-04T06:04:46;7.30;99.90
5899;DHT22;2975;50.956;6.962;2023-02-04T06:07:11;7.30;99.90
5899;DHT22;2975;50.956;6.962;2023-02-04T06:09:37;7.30;99.90
5899;DHT22;2975;50.956;6.962;2023-02-04T06:12:02;7.30;99.90
5899;DHT22;2975;50.956;6.962;2023-02-04T06:14:28;7.30;99.90
5899;DHT22;2975;50.956;6.962;2023-02-04T06:16:54;7.30;99.90
5899;DHT22;2975;50.956;6.962;2023-02-04T06:19:19;7.30;99.90
5899;DHT22;2975;50.956;6.962;2023-02-04T06:21:45;7.30;99.90
5899;DHT22;2975;50.956;6.962;2023-02-04T06:24:10;7.30;99.90
5899;DHT22;2975;50.956;6.962;2023-02-04T06:26:36;7.30;99.90
5899;DHT22;2975;50.956;6.962;2023-02-04T06:29:02;7.30;99.90
5899;DHT22;2975;50.956;6.962;2023-02-04T06:31:27;7.40;99.90
5899;DHT22;2975;50.956;6.962;2023-02-04T06:33:53;7.30;99.90
5899;DHT22;2975;50.956;6.962;2023-02-04T06:36:18;7.30;99.90
5899;DHT22;2975;50.956;6.962;2023-02-04T06:38:44;7.30;99.90
5899;DHT22;2975;50.956;6.962;2023-02-04T06:41:09;7.30;99.90
5899;DHT22;2975;50.956;6.962;2023-02-04T06:43:35;7.30;99.90
5899;DHT22;2975;50.956;6.962;2023-02-04T06:46:01;7.30;99.90
5899;DHT22;2975;50.956;6.962;2023-02-04T06:48:26;7.30;99.90
5899;DHT22;2975;50.956;6.962;2023-02-04T06:50:52;7.30;99.90
5899;DHT22;2975;50.956;6.962;2023-02-04T06:53:17;7.20;99.90
5899;DHT22;2975;50.956;6.962;2023-02-04T06:55:43;7.20;99.90
5899;DHT22;2975;50.956;6.962;2023-02-04T06:58:08;7.20;99.90
5899;DHT22;2975;50.956;6.962;2023-02-04T07:00:34;7.30;99.90
5899;DHT22;2975;50.956;6.962;2023-02-04T07:03:00;7.20;99.90
5899;DHT22;2975;50.956;6.962;2023-02-04T07:05:25;7.20;99.90
5899;DHT22;2975;50.956;6.962;2023-02-04T07:07:51;7.20;99.90
5899;DHT22;2975;50.956;6.962;2023-02-04T07:10:17;7.20;99.90
5899;DHT22;2975;50.956;6.962;2023-02-04T07:12:45;7.20;99.90
5899;DHT22;2975;50.956;6.962;2023-02-04T07:15:10;7.20;99.90
5899;DHT22;2975;50.956;6.962;2023-02-04T07:17:36;7.10;99.90
5899;DHT22;2975;50.956;6.962;2023-02-04T07:20:02;7.10;99.90
5899;DHT22;2975;50.956;6.962;2023-02-04T07:22:27;7.10;99.90
5899;DHT22;2975;50.956;6.962;2023-02-04T07:24:53;7.10;99.90
5899;DHT22;2975;50.956;6.962;2023-02-04T07:27:18;7.10;99.90
5899;DHT22;2975;50.956;6.962;2023-02-04T07:29:44;7.20;99.90
5899;DHT22;2975;50.956;6.962;2023-02-04T07:32:09;7.20;99.90
5899;DHT22;2975;50.956;6.962;2023-02-04T07:34:35;7.20;99.90
5899;DHT22;2975;50.956;6.962;2023-02-04T07:37:00;7.20;99.90
5899;DHT22;2975;50.956;6.962;2023-02-04T07:39:26;7.20;99.90
5899;DHT22;2975;50.956;6.962;2023-02-04T07:41:52;7.30;99.90
5899;DHT22;2975;50.956;6.962;2023-02-04T07:44:17;7.30;99.90
5899;DHT22;2975;50.956;6.962;2023-02-04T07:46:43;7.40;99.90
5899;DHT22;2975;50.956;6.962;2023-02-04T07:49:08;7.40;99.90
5899;DHT22;2975;50.956;6.962;2023-02-04T07:51:34;7.50;99.90
5899;DHT22;2975;50.956;6.962;2023-02-04T07:54:00;7.50;99.90
5899;DHT22;2975;50.956;6.962;2023-02-04T07:56:25;7.60;99.90
5899;DHT22;2975;50.956;6.962;2023-02-04T07:58:51;7.60;99.90
5899;DHT22;2975;50.956;6.962;2023-02-04T08:01:17;7.60;99.90
5899;DHT22;2975;50.956;6.962;2023-02-04T08:03:43;7.60;99.90
5899;DHT22;2975;50.956;6.962;2023-02-04T08:06:09;7.70;99.90
5899;DHT22;2975;50.956;6.962;2023-02-04T08:08:34;7.70;99.90
5899;DHT22;2975;50.956;6.962;2023-02-04T08:11:00;7.80;99.90
5899;DHT22;2975;50.956;6.962;2023-02-04T08:13:25;7.80;99.90
5899;DHT22;2975;50.956;6.962;2023-02-04T08:15:51;7.80;99.90
5899;DHT22;2975;50.956;6.962;2023-02-04T08:18:17;7.80;99.90
5899;DHT22;2975;50.956;6.962;2023-02-04T08:20:42;7.70;99.90
5899;DHT22;2975;50.956;6.962;2023-02-04T08:23:08;7.80;99.90
5899;DHT22;2975;50.956;6.962;2023-02-04T08:25:34;7.80;99.90
5899;DHT22;2975;50.956;6.962;2023-02-04T08:27:59;7.80;99.90
5899;DHT22;2975;50.956;6.962;2023-02-04T08:30:25;7.90;99.90
5899;DHT22;2975;50.956;6.962;2023-02-04T08:32:51;8.00;99.90
5899;DHT22;2975;50.956;6.962;2023-02-04T08:35:17;8.00;99.90
5899;DHT22;2975;50.956;6.962;2023-02-04T08:37:43;8.20;99.90
5899;DHT22;2975;50.956;6.962;2023-02-04T08:40:09;8.20;99.90
5899;DHT22;2975;50.956;6.962;2023-02-04T08:42:35;8.20;99.90
5899;DHT22;2975;50.956;6.962;2023-02-04T08:45:00;8.30;99.90
5899;DHT22;2975;50.956;6.962;2023-02-04T08:47:26;8.20;99.90
5899;DHT22;2975;50.956;6.962;2023-02-04T08:49:51;8.20;99.90
5899;DHT22;2975;50.956;6.962;2023-02-04T08:52:18;8.20;99.90
5899;DHT22;2975;50.956;6.962;2023-02-04T08:54:43;8.20;99.90
5899;DHT22;2975;50.956;6.962;2023-02-04T08:57:09;8.20;99.90
5899;DHT22;2975;50.956;6.962;2023-02-04T08:59:35;8.20;99.90
5899;DHT22;2975;50.956;6.962;2023-02-04T09:02:00;8.20;99.90
5899;DHT22;2975;50.956;6.962;2023-02-04T09:04:27;8.20;99.90
5899;DHT22;2975;50.956;6.962;2023-02-04T09:06:53;8.20;99.90
5899;DHT22;2975;50.956;6.962;2023-02-04T09:09:19;8.20;99.90
5899;DHT22;2975;50.956;6.962;2023-02-04T09:11:45;8.20;99.90
5899;DHT22;2975;50.956;6.962;2023-02-04T09:14:12;8.20;99.90
5899;DHT22;2975;50.956;6.962;2023-02-04T09:16:38;8.20;99.90
5899;DHT22;2975;50.956;6.962;2023-02-04T09:19:03;8.30;99.90
5899;DHT22;2975;50.956;6.962;2023-02-04T09:21:30;8.40;99.90
5899;DHT22;2975;50.956;6.962;2023-02-04T09:23:55;8.40;99.90
5899;DHT22;2975;50.956;6.962;2023-02-04T09:26:21;8.50;99.90
5899;DHT22;2975;50.956;6.962;2023-02-04T09:28:47;8.50;99.90
5899;DHT22;2975;50.956;6.962;2023-02-04T09:31:13;8.60;99.90
5899;DHT22;2975;50.956;6.962;2023-02-04T09:33:40;8.70;99.90
5899;DHT22;2975;50.956;6.962;2023-02-04T09:36:05;8.90;99.90
5899;DHT22;2975;50.956;6.962;2023-02-04T09:38:31;9.10;99.90
5899;DHT22;2975;50.956;6.962;2023-02-04T09:41:00;9.00;99.90
5899;DHT22;2975;50.956;6.962;2023-02-04T09:43:32;9.10;99.90
5899;DHT22;2975;50.956;6.962;2023-02-04T09:45:59;9.20;99.90
5899;DHT22;2975;50.956;6.962;2023-02-04T09:48:25;9.20;99.90
5899;DHT22;2975;50.956;6.962;2023-02-04T09:51:01;9.30;99.90
5899;DHT22;2975;50.956;6.962;2023-02-04T09:53:29;9.40;99.90
5899;DHT22;2975;50.956;6.962;2023-02-04T09:55:55;9.50;99.90
5899;DHT22;2975;50.956;6.962;2023-02-04T09:58:22;9.60;99.90
5899;DHT22;2975;50.956;6.962;2023-02-04T10:00:55;9.70;99.90
5899;DHT22;2975;50.956;6.962;2023-02-04T10:03:22;9.70;99.90
5899;DHT22;2975;50.956;6.962;2023-02-04T10:05:48;9.70;99.90
5899;DHT22;2975;50.956;6.962;2023-02-04T10:08:16;9.70;99.90
5899;DHT22;2975;50.956;6.962;2023-02-04T10:10:43;9.70;99.90
5899;DHT22;2975;50.956;6.962;2023-02-04T10:13:18;9.70;99.90
5899;DHT22;2975;50.956;6.962;2023-02-04T10:15:46;9.80;99.90
5899;DHT22;2975;50.956;6.962;2023-02-04T10:18:19;9.80;99.90
5899;DHT22;2975;50.956;6.962;2023-02-04T10:20:47;9.90;99.90
5899;DHT22;2975;50.956;6.962;2023-02-04T10:23:12;10.20;99.90
5899;DHT22;2975;50.956;6.962;2023-02-04T10:25:38;10.00;99.90
5899;DHT22;2975;50.956;6.962;2023-02-04T10:28:03;10.00;99.90
5899;DHT22;2975;50.956;6.962;2023-02-04T10:30:40;10.00;99.90
5899;DHT22;2975;50.956;6.962;2023-02-04T10:33:22;9.90;99.90
5899;DHT22;2975;50.956;6.962;2023-02-04T10:35:52;10.00;99.90
5899;DHT22;2975;50.956;6.962;2023-02-04T10:38:19;10.10;99.90
5899;DHT22;2975;50.956;6.962;2023-02-04T10:40:45;10.10;99.90
5899;DHT22;2975;50.956;6.962;2023-02-04T10:43:20;10.00;99.90
5899;DHT22;2975;50.956;6.962;2023-02-04T10:45:54;10.00;99.90
5899;DHT22;2975;50.956;6.962;2023-02-04T10:48:20;10.10;99.90
5899;DHT22;2975;50.956;6.962;2023-02-04T10:50:47;10.40;99.90
5899;DHT22;2975;50.956;6.962;2023-02-04T10:53:16;10.50;99.90
5899;DHT22;2975;50.956;6.962;2023-02-04T10:56:01;10.60;99.90
5899;DHT22;2975;50.956;6.962;2023-02-04T10:58:28;10.70;99.90
5899;DHT22;2975;50.956;6.962;2023-02-04T11:00:55;10.80;99.90
5899;DHT22;2975;50.956;6.962;2023-02-04T11:03:25;10.90;99.90
5899;DHT22;2975;50.956;6.962;2023-02-04T11:05:52;10.80;99.90
5899;DHT22;2975;50.956;6.962;2023-02-04T11:10:56;10.70;99.90
5899;DHT22;2975;50.956;6.962;2023-02-04T11:13:38;10.80;99.90
5899;DHT22;2975;50.956;6.962;2023-02-04T11:26:41;11.50;99.90
5899;DHT22;2975;50.956;6.962;2023-02-04T11:29:08;11.40;99.90
5899;DHT22;2975;50.956;6.962;2023-02-04T11:42:00;10.70;99.90
5899;DHT22;2975;50.956;6.962;2023-02-04T11:44:26;10.60;99.90
5899;DHT22;2975;50.956;6.962;2023-02-04T11:46:54;10.60;99.90
5899;DHT22;2975;50.956;6.962;2023-02-04T11:49:21;10.70;99.90
5899;DHT22;2975;50.956;6.962;2023-02-04T11:51:48;10.80;99.90
5899;DHT22;2975;50.956;6.962;2023-02-04T11:54:15;10.90;99.90
5899;DHT22;2975;50.956;6.962;2023-02-04T11:56:44;10.90;99.90
5899;DHT22;2975;50.956;6.962;2023-02-04T11:59:11;11.10;99.90
5899;DHT22;2975;50.956;6.962;2023-02-04T12:01:37;11.00;99.90
5899;DHT22;2975;50.956;6.962;2023-02-04T12:04:06;10.80;99.90
5899;DHT22;2975;50.956;6.962;2023-02-04T12:06:34;10.80;99.90
5899;DHT22;2975;50.956;6.962;2023-02-04T12:12:00;11.00;99.90
5899;DHT22;2975;50.956;6.962;2023-02-04T12:14:33;10.90;99.90
5899;DHT22;2975;50.956;6.962;2023-02-04T12:16:59;10.80;99.90
5899;DHT22;2975;50.956;6.962;2023-02-04T12:19:25;10.90;99.90
5899;DHT22;2975;50.956;6.962;2023-02-04T12:21:51;10.90;99.90
5899;DHT22;2975;50.956;6.962;2023-02-04T12:24:17;11.10;99.90
5899;DHT22;2975;50.956;6.962;2023-02-04T12:26:42;11.10;99.90
5899;DHT22;2975;50.956;6.962;2023-02-04T12:29:08;11.20;99.90
5899;DHT22;2975;50.956;6.962;2023-02-04T12:31:34;11.10;99.90
5899;DHT22;2975;50.956;6.962;2023-02-04T12:34:00;11.10;99.50
5899;DHT22;2975;50.956;6.962;2023-02-04T12:36:26;11.00;99.30
5899;DHT22;2975;50.956;6.962;2023-02-04T12:38:54;11.10;99.80
5899;DHT22;2975;50.956;6.962;2023-02-04T12:41:20;11.30;99.40
5899;DHT22;2975;50.956;6.962;2023-02-04T12:43:45;11.20;99.40
5899;DHT22;2975;50.956;6.962;2023-02-04T12:46:14;11.20;99.10
5899;DHT22;2975;50.956;6.962;2023-02-04T12:48:40;11.10;99.20
5899;DHT22;2975;50.956;6.962;2023-02-04T12:51:06;11.00;98.40
5899;DHT22;2975;50.956;6.962;2023-02-04T12:53:32;11.00;98.00
5899;DHT22;2975;50.956;6.962;2023-02-04T12:55:58;11.00;98.50
5899;DHT22;2975;50.956;6.962;2023-02-04T12:58:24;11.10;98.60
5899;DHT22;2975;50.956;6.962;2023-02-04T13:00:49;11.00;98.70
5899;DHT22;2975;50.956;6.962;2023-02-04T13:03:15;11.20;98.60
5899;DHT22;2975;50.956;6.962;2023-02-04T13:05:40;11.40;98.70
5899;DHT22;2975;50.956;6.962;2023-02-04T13:08:06;11.30;98.40
5899;DHT22;2975;50.956;6.962;2023-02-04T13:10:32;11.30;98.60
5899;DHT22;2975;50.956;6.962;2023-02-04T13:12:58;11.50;98.50
5899;DHT22;2975;50.956;6.962;2023-02-04T13:15:25;11.50;98.40
5899;DHT22;2975;50.956;6.962;2023-02-04T13:17:50;11.60;98.20
5899;DHT22;2975;50.956;6.962;2023-02-04T13:20:16;11.60;98.20
5899;DHT22;2975;50.956;6.962;2023-02-04T13:22:42;11.70;97.80
5899;DHT22;2975;50.956;6.962;2023-02-04T13:25:08;11.80;98.00
5899;DHT22;2975;50.956;6.962;2023-02-04T13:27:36;11.80;97.60
5899;DHT22;2975;50.956;6.962;2023-02-04T13:30:05;11.60;96.30
5899;DHT22;2975;50.956;6.962;2023-02-04T13:32:31;11.50;96.80
5899;DHT22;2975;50.956;6.962;2023-02-04T13:34:56;11.40;97.90
5899;DHT22;2975;50.956;6.962;2023-02-04T13:37:22;11.50;98.10
5899;DHT22;2975;50.956;6.962;2023-02-04T13:39:47;11.40;97.90
5899;DHT22;2975;50.956;6.962;2023-02-04T13:42:13;11.20;98.00
5899;DHT22;2975;50.956;6.962;2023-02-04T13:44:39;11.20;98.40
5899;DHT22;2975;50.956;6.962;2023-02-04T13:47:04;11.20;98.20
5899;DHT22;2975;50.956;6.962;2023-02-04T13:49:30;11.40;97.80
5899;DHT22;2975;50.956;6.962;2023-02-04T13:51:55;11.70;97.10
5899;DHT22;2975;50.956;6.962;2023-02-04T13:54:21;11.70;97.00
5899;DHT22;2975;50.956;6.962;2023-02-04T13:56:47;11.60;96.50
5899;DHT22;2975;50.956;6.962;2023-02-04T13:59:12;11.50;96.80
5899;DHT22;2975;50.956;6.962;2023-02-04T14:01:38;11.40;96.70
5899;DHT22;2975;50.956;6.962;2023-02-04T14:04:04;11.30;96.50
5899;DHT22;2975;50.956;6.962;2023-02-04T14:06:29;11.20;96.70
5899;DHT22;2975;50.956;6.962;2023-02-04T14:09:02;11.30;96.40
5899;DHT22;2975;50.956;6.962;2023-02-04T14:11:28;11.20;96.90
5899;DHT22;2975;50.956;6.962;2023-02-04T14:13:54;11.00;97.40
5899;DHT22;2975;50.956;6.962;2023-02-04T14:16:19;10.90;97.60
5899;DHT22;2975;50.956;6.962;2023-02-04T14:18:45;10.80;98.30
5899;DHT22;2975;50.956;6.962;2023-02-04T14:21:11;10.70;98.60
5899;DHT22;2975;50.956;6.962;2023-02-04T14:23:36;10.60;99.30
5899;DHT22;2975;50.956;6.962;2023-02-04T14:26:02;10.40;99.50
5899;DHT22;2975;50.956;6.962;2023-02-04T14:28:28;10.30;99.80
5899;DHT22;2975;50.956;6.962;2023-02-04T14:30:53;10.30;99.90
5899;DHT22;2975;50.956;6.962;2023-02-04T14:33:20;10.40;99.90
5899;DHT22;2975;50.956;6.962;2023-02-04T14:35:46;10.50;99.60
5899;DHT22;2975;50.956;6.962;2023-02-04T14:38:11;10.50;99.10
5899;DHT22;2975;50.956;6.962;2023-02-04T14:40:40;10.40;99.00
5899;DHT22;2975;50.956;6.962;2023-02-04T14:43:07;10.40;99.20
5899;DHT22;2975;50.956;6.962;2023-02-04T14:45:33;10.30;99.20
5899;DHT22;2975;50.956;6.962;2023-02-04T14:47:58;10.30;99.40
5899;DHT22;2975;50.956;6.962;2023-02-04T14:50:25;10.30;99.20
5899;DHT22;2975;50.956;6.962;2023-02-04T14:52:53;10.30;98.80
5899;DHT22;2975;50.956;6.962;2023-02-04T14:55:24;10.30;99.10
5899;DHT22;2975;50.956;6.962;2023-02-04T14:57:50;10.10;99.00
5899;DHT22;2975;50.956;6.962;2023-02-04T15:00:17;10.00;99.50
5899;DHT22;2975;50.956;6.962;2023-02-04T15:02:43;9.80;99.90
5899;DHT22;2975;50.956;6.962;2023-02-04T15:05:09;9.80;99.90
5899;DHT22;2975;50.956;6.962;2023-02-04T15:07:36;9.70;99.90
5899;DHT22;2975;50.956;6.962;2023-02-04T15:10:02;9.60;99.90
5899;DHT22;2975;50.956;6.962;2023-02-04T15:12:28;9.50;99.90
5899;DHT22;2975;50.956;6.962;2023-02-04T15:14:54;9.50;99.90
5899;DHT22;2975;50.956;6.962;2023-02-04T15:17:19;9.40;99.90
5899;DHT22;2975;50.956;6.962;2023-02-04T15:19:45;9.40;99.90
5899;DHT22;2975;50.956;6.962;2023-02-04T15:22:10;9.40;99.90
5899;DHT22;2975;50.956;6.962;2023-02-04T15:24:37;9.40;99.90
5899;DHT22;2975;50.956;6.962;2023-02-04T15:27:04;9.50;99.90
5899;DHT22;2975;50.956;6.962;2023-02-04T15:29:29;9.50;99.90
5899;DHT22;2975;50.956;6.962;2023-02-04T15:31:55;9.40;99.90
5899;DHT22;2975;50.956;6.962;2023-02-04T15:34:21;9.30;99.90
5899;DHT22;2975;50.956;6.962;2023-02-04T15:36:47;9.30;99.90
5899;DHT22;2975;50.956;6.962;2023-02-04T15:39:12;9.20;99.90
5899;DHT22;2975;50.956;6.962;2023-02-04T15:41:38;9.30;99.90
5899;DHT22;2975;50.956;6.962;2023-02-04T15:44:04;9.30;99.90
5899;DHT22;2975;50.956;6.962;2023-02-04T15:46:33;9.30;99.90
5899;DHT22;2975;50.956;6.962;2023-02-04T15:49:01;9.40;99.90
5899;DHT22;2975;50.956;6.962;2023-02-04T15:51:27;9.40;99.90
5899;DHT22;2975;50.956;6.962;2023-02-04T15:53:52;9.40;99.90
5899;DHT22;2975;50.956;6.962;2023-02-04T15:56:18;9.40;99.90
5899;DHT22;2975;50.956;6.962;2023-02-04T15:58:44;9.40;99.90
5899;DHT22;2975;50.956;6.962;2023-02-04T16:01:09;9.50;99.90
5899;DHT22;2975;50.956;6.962;2023-02-04T16:03:35;9.50;99.90
5899;DHT22;2975;50.956;6.962;2023-02-04T16:06:00;9.50;99.90
5899;DHT22;2975;50.956;6.962;2023-02-04T16:08:26;9.40;99.90
5899;DHT22;2975;50.956;6.962;2023-02-04T16:10:52;9.30;99.90
5899;DHT22;2975;50.956;6.962;2023-02-04T16:13:19;9.30;99.90
5899;DHT22;2975;50.956;6.962;2023-02-04T16:15:44;9.30;99.90
5899;DHT22;2975;50.956;6.962;2023-02-04T16:18:10;9.30;99.90
5899;DHT22;2975;50.956;6.962;2023-02-04T16:20:36;9.30;99.90
5899;DHT22;2975;50.956;6.962;2023-02-04T16:23:01;9.30;99.90
5899;DHT22;2975;50.956;6.962;2023-02-04T16:25:29;9.30;99.90
5899;DHT22;2975;50.956;6.962;2023-02-04T16:27:55;9.30;99.90
5899;DHT22;2975;50.956;6.962;2023-02-04T16:30:20;9.30;99.90
5899;DHT22;2975;50.956;6.962;2023-02-04T16:32:46;9.20;99.90
5899;DHT22;2975;50.956;6.962;2023-02-04T16:35:11;9.20;99.90